sensor_id;sensor_type;location;lat;lon;timestamp;pressure;altitude;pressure_sealevel;temperature;humidity
63493;BME280;49638;47.526;10.028;2024-02-26T00:00:04;89836.06;;;4.88;54.26
63493;BME280;49638;47.526;10.028;2024-02-26T00:03:09;89829.56;;;4.96;54.30
63493;BME280;49638;47.526;10.028;2024-02-26T00:06:09;89832.72;;;4.98;54.35
63493;BME280;49638;47.526;10.028;2024-02-26T00:09:09;89839.50;;;4.99;53.90
63493;BME280;49638;47.526;10.028;2024-02-26T00:12:10;89813.53;;;4.82;54.20
63493;BME280;49638;47.526;10.028;2024-02-26T00:15:10;89840.31;;;5.00;54.20
63493;BME280;49638;47.526;10.028;2024-02-26T00:18:11;89833.50;;;4.98;54.20
63493;BME280;49638;47.526;10.028;2024-02-26T00:21:11;89847.91;;;5.01;53.91
63493;BME280;49638;47.526;10.028;2024-02-26T00:24:11;89829.28;;;4.92;54.65
63493;BME280;49638;47.526;10.028;2024-02-26T00:27:12;89846.63;;;5.04;53.89
63493;BME280;49638;47.526;10.028;2024-02-26T00:30:12;89847.91;;;5.01;53.67
63493;BME280;49638;47.526;10.028;2024-02-26T00:33:16;89841.09;;;5.05;53.66
63493;BME280;49638;47.526;10.028;2024-02-26T00:36:16;89846.06;;;4.96;49.08
63493;BME280;49638;47.526;10.028;2024-02-26T00:39:18;89825.34;;;4.95;53.51
63493;BME280;49638;47.526;10.028;2024-02-26T00:42:18;89829.06;;;5.04;53.54
63493;BME280;49638;47.526;10.028;2024-02-26T00:45:19;89833.78;;;5.07;53.55
63493;BME280;49638;47.526;10.028;2024-02-26T00:48:19;89827.50;;;5.08;53.40
63493;BME280;49638;47.526;10.028;2024-02-26T00:51:19;89805.75;;;4.97;53.65
63493;BME280;49638;47.526;10.028;2024-02-26T00:54:20;89828.06;;;5.15;53.35
63493;BME280;49638;47.526;10.028;2024-02-26T00:57:22;89824.66;;;5.15;53.56
63493;BME280;49638;47.526;10.028;2024-02-26T01:00:23;89822.28;;;5.08;53.75
63493;BME280;49638;47.526;10.028;2024-02-26T01:03:23;89828.28;;;5.04;54.03
63493;BME280;49638;47.526;10.028;2024-02-26T01:06:23;89829.63;;;5.11;53.68
63493;BME280;49638;47.526;10.028;2024-02-26T01:09:23;89820.72;;;5.07;53.76
63493;BME280;49638;47.526;10.028;2024-02-26T01:12:24;89813.94;;;5.16;53.78
63493;BME280;49638;47.526;10.028;2024-02-26T01:15:24;89813.91;;;5.06;54.23
63493;BME280;49638;47.526;10.028;2024-02-26T01:18:24;89815.97;;;5.09;54.26
63493;BME280;49638;47.526;10.028;2024-02-26T01:21:25;89816.78;;;5.10;55.43
63493;BME280;49638;47.526;10.028;2024-02-26T01:24:27;89807.59;;;5.02;55.30
63493;BME280;49638;47.526;10.028;2024-02-26T01:27:27;89810.47;;;5.01;56.02
63493;BME280;49638;47.526;10.028;2024-02-26T01:30:28;89804.19;;;4.96;55.93
63493;BME280;49638;47.526;10.028;2024-02-26T01:33:28;89776.38;;;4.85;55.67
63493;BME280;49638;47.526;10.028;2024-02-26T01:36:31;89796.59;;;5.00;56.25
63493;BME280;49638;47.526;10.028;2024-02-26T01:39:31;89793.72;;;4.96;56.58
63493;BME280;49638;47.526;10.028;2024-02-26T01:42:31;89787.66;;;4.86;56.37
63493;BME280;49638;47.526;10.028;2024-02-26T01:45:32;89802.81;;;4.89;56.81
63493;BME280;49638;47.526;10.028;2024-02-26T01:48:33;89799.69;;;4.87;57.24
63493;BME280;49638;47.526;10.028;2024-02-26T01:51:34;89786.28;;;4.78;57.52
63493;BME280;49638;47.526;10.028;2024-02-26T01:54:36;89790.00;;;4.87;57.44
63493;BME280;49638;47.526;10.028;2024-02-26T01:57:37;89792.06;;;4.85;57.74
63493;BME280;49638;47.526;10.028;2024-02-26T02:00:38;89784.50;;;4.84;57.91
63493;BME280;49638;47.526;10.028;2024-02-26T02:03:39;89782.13;;;4.82;57.70
63493;BME280;49638;47.526;10.028;2024-02-26T02:06:42;89791.56;;;4.83;57.79
63493;BME280;49638;47.526;10.028;2024-02-26T02:09:43;89792.34;;;4.84;58.16
63493;BME280;49638;47.526;10.028;2024-02-26T02:12:43;89789.22;;;4.87;57.91
63493;BME280;49638;47.526;10.028;2024-02-26T02:15:43;89779.25;;;4.84;57.96
63493;BME280;49638;47.526;10.028;2024-02-26T02:18:44;89792.09;;;4.90;58.29
63493;BME280;49638;47.526;10.028;2024-02-26T02:21:44;89788.72;;;4.90;58.52
63493;BME280;49638;47.526;10.028;2024-02-26T02:24:45;89786.59;;;4.92;58.22
63493;BME280;49638;47.526;10.028;2024-02-26T02:27:45;89798.16;;;4.96;57.99
63493;BME280;49638;47.526;10.028;2024-02-26T02:30:45;89794.22;;;4.98;57.52
63493;BME280;49638;47.526;10.028;2024-02-26T02:33:46;89793.47;;;5.03;58.23
63493;BME280;49638;47.526;10.028;2024-02-26T02:36:52;89780.84;;;4.95;58.11
63493;BME280;49638;47.526;10.028;2024-02-26T02:39:53;89783.25;;;4.96;58.20
63493;BME280;49638;47.526;10.028;2024-02-26T02:42:55;89793.47;;;5.08;58.45
63493;BME280;49638;47.526;10.028;2024-02-26T02:45:55;89800.03;;;5.11;58.71
63493;BME280;49638;47.526;10.028;2024-02-26T02:48:55;89798.19;;;5.11;57.98
63493;BME280;49638;47.526;10.028;2024-02-26T02:51:55;89801.88;;;5.15;58.01
63493;BME280;49638;47.526;10.028;2024-02-26T02:54:58;89801.91;;;5.20;58.05
63493;BME280;49638;47.526;10.028;2024-02-26T02:57:58;89793.75;;;5.12;58.32
63493;BME280;49638;47.526;10.028;2024-02-26T03:00:58;89784.06;;;5.07;58.73
63493;BME280;49638;47.526;10.028;2024-02-26T03:04:00;89802.66;;;5.16;58.63
63493;BME280;49638;47.526;10.028;2024-02-26T03:07:00;89790.38;;;5.16;58.64
63493;BME280;49638;47.526;10.028;2024-02-26T03:10:00;89790.63;;;5.15;58.76
63493;BME280;49638;47.526;10.028;2024-02-26T03:13:01;89777.25;;;5.06;58.56
63493;BME280;49638;47.526;10.028;2024-02-26T03:16:05;89795.06;;;5.19;58.29
63493;BME280;49638;47.526;10.028;2024-02-26T03:19:06;89803.97;;;5.18;58.41
63493;BME280;49638;47.526;10.028;2024-02-26T03:22:07;89801.34;;;5.13;58.24
63493;BME280;49638;47.526;10.028;2024-02-26T03:25:07;89790.84;;;5.08;58.22
63493;BME280;49638;47.526;10.028;2024-02-26T03:28:08;89799.75;;;5.12;58.85
63493;BME280;49638;47.526;10.028;2024-02-26T03:31:08;89798.72;;;5.08;58.82
63493;BME280;49638;47.526;10.028;2024-02-26T03:34:09;89800.78;;;5.01;59.39
63493;BME280;49638;47.526;10.028;2024-02-26T03:37:09;89800.50;;;4.97;59.20
63493;BME280;49638;47.526;10.028;2024-02-26T03:40:11;89806.78;;;4.96;59.35
63493;BME280;49638;47.526;10.028;2024-02-26T03:43:13;89809.66;;;4.95;59.44
63493;BME280;49638;47.526;10.028;2024-02-26T03:46:14;89790.00;;;4.87;59.36
63493;BME280;49638;47.526;10.028;2024-02-26T03:49:14;89802.34;;;4.97;59.63
63493;BME280;49638;47.526;10.028;2024-02-26T03:52:15;89809.66;;;4.95;59.43
63493;BME280;49638;47.526;10.028;2024-02-26T03:55:15;89813.84;;;4.91;59.48
63493;BME280;49638;47.526;10.028;2024-02-26T03:58:16;89805.97;;;4.91;59.33
63493;BME280;49638;47.526;10.028;2024-02-26T04:01:16;89811.22;;;4.91;59.84
63493;BME280;49638;47.526;10.028;2024-02-26T04:04:16;89797.81;;;4.82;60.36
63493;BME280;49638;47.526;10.028;2024-02-26T04:07:17;89799.16;;;4.85;60.35
63493;BME280;49638;47.526;10.028;2024-02-26T04:10:17;89815.44;;;4.97;60.12
63493;BME280;49638;47.526;10.028;2024-02-26T04:13:17;89817.78;;;4.98;60.14
63493;BME280;49638;47.526;10.028;2024-02-26T04:16:18;89806.53;;;4.93;60.12
63493;BME280;49638;47.526;10.028;2024-02-26T04:19:18;89788.97;;;4.93;60.05
63493;BME280;49638;47.526;10.028;2024-02-26T04:22:18;89801.84;;;5.05;59.33
63493;BME280;49638;47.526;10.028;2024-02-26T04:25:19;89799.47;;;4.98;59.06
63493;BME280;49638;47.526;10.028;2024-02-26T04:28:19;89801.28;;;4.98;59.24
63493;BME280;49638;47.526;10.028;2024-02-26T04:31:20;89793.66;;;4.91;59.57
63493;BME280;49638;47.526;10.028;2024-02-26T04:34:21;89796.81;;;4.88;59.64
63493;BME280;49638;47.526;10.028;2024-02-26T04:37:21;89803.34;;;4.86;59.86
63493;BME280;49638;47.526;10.028;2024-02-26T04:40:21;89804.09;;;4.81;60.00
63493;BME280;49638;47.526;10.028;2024-02-26T04:43:22;89789.69;;;4.73;60.15
63493;BME280;49638;47.526;10.028;2024-02-26T04:46:22;89789.94;;;4.72;60.16
63493;BME280;49638;47.526;10.028;2024-02-26T04:49:22;89788.09;;;4.67;60.63
63493;BME280;49638;47.526;10.028;2024-02-26T04:52:23;89775.00;;;4.67;59.89
63493;BME280;49638;47.526;10.028;2024-02-26T04:55:23;89772.41;;;4.72;59.40
63493;BME280;49638;47.526;10.028;2024-02-26T04:58:23;89765.63;;;4.77;59.59
63493;BME280;49638;47.526;10.028;2024-02-26T05:01:24;89765.91;;;4.80;59.78
63493;BME280;49638;47.526;10.028;2024-02-26T05:04:24;89771.41;;;4.84;59.85
63493;BME280;49638;47.526;10.028;2024-02-26T05:07:24;89780.31;;;4.88;60.08
63493;BME280;49638;47.526;10.028;2024-02-26T05:10:25;89774.03;;;4.84;60.33
63493;BME280;49638;47.526;10.028;2024-02-26T05:13:25;89788.97;;;4.93;60.20
63493;BME280;49638;47.526;10.028;2024-02-26T05:16:25;89784.78;;;4.92;60.41
63493;BME280;49638;47.526;10.028;2024-02-26T05:19:27;89792.63;;;4.92;60.49
63493;BME280;49638;47.526;10.028;2024-02-26T05:22:27;89788.97;;;4.98;59.88
63493;BME280;49638;47.526;10.028;2024-02-26T05:25:27;89786.63;;;5.02;60.03
63493;BME280;49638;47.526;10.028;2024-02-26T05:28:28;89788.25;;;5.08;60.49
63493;BME280;49638;47.526;10.028;2024-02-26T05:31:28;89778.53;;;5.04;60.22
63493;BME280;49638;47.526;10.028;2024-02-26T05:34:28;89792.44;;;5.19;59.82
63493;BME280;49638;47.526;10.028;2024-02-26T05:37:30;89791.94;;;5.17;59.89
63493;BME280;49638;47.526;10.028;2024-02-26T05:40:30;89793.50;;;5.13;59.13
63493;BME280;49638;47.526;10.028;2024-02-26T05:43:30;89805.56;;;5.25;58.52
63493;BME280;49638;47.526;10.028;2024-02-26T05:46:31;89802.94;;;5.30;59.20
63493;BME280;49638;47.526;10.028;2024-02-26T05:49:31;89799.31;;;5.31;58.76
63493;BME280;49638;47.526;10.028;2024-02-26T05:52:32;89800.63;;;5.33;59.28
63493;BME280;49638;47.526;10.028;2024-02-26T05:55:32;89788.78;;;5.15;59.31
63493;BME280;49638;47.526;10.028;2024-02-26T05:58:33;89821.03;;;5.31;59.35
63493;BME280;49638;47.526;10.028;2024-02-26T06:01:33;89817.63;;;5.26;59.31
63493;BME280;49638;47.526;10.028;2024-02-26T06:04:34;89821.59;;;5.33;59.45
63493;BME280;49638;47.526;10.028;2024-02-26T06:07:34;89827.88;;;5.42;59.12
63493;BME280;49638;47.526;10.028;2024-02-26T06:10:35;89835.75;;;5.48;59.06
63493;BME280;49638;47.526;10.028;2024-02-26T06:13:35;89832.88;;;5.49;58.97
63493;BME280;49638;47.526;10.028;2024-02-26T06:16:35;89846.25;;;5.53;58.91
63493;BME280;49638;47.526;10.028;2024-02-26T06:19:36;89849.09;;;5.46;59.38
63493;BME280;49638;47.526;10.028;2024-02-26T06:22:36;89847.28;;;5.41;59.75
63493;BME280;49638;47.526;10.028;2024-02-26T06:25:37;89845.16;;;5.33;60.15
63493;BME280;49638;47.526;10.028;2024-02-26T06:28:37;89858.25;;;5.38;60.31
63493;BME280;49638;47.526;10.028;2024-02-26T06:31:40;89872.66;;;5.36;59.92
63493;BME280;49638;47.526;10.028;2024-02-26T06:34:41;89873.97;;;5.38;60.04
63493;BME280;49638;47.526;10.028;2024-02-26T06:37:41;89883.16;;;5.41;60.15
63493;BME280;49638;47.526;10.028;2024-02-26T06:40:41;89871.09;;;5.35;60.07
63493;BME280;49638;47.526;10.028;2024-02-26T06:43:42;89885.00;;;5.45;60.14
63493;BME280;49638;47.526;10.028;2024-02-26T06:46:42;89885.25;;;5.39;60.75
63493;BME280;49638;47.526;10.028;2024-02-26T06:49:42;89878.19;;;5.44;60.67
63493;BME280;49638;47.526;10.028;2024-02-26T06:52:44;89892.06;;;5.50;61.05
63493;BME280;49638;47.526;10.028;2024-02-26T06:55:45;89904.66;;;5.48;61.83
63493;BME280;49638;47.526;10.028;2024-02-26T06:58:46;89901.50;;;5.46;61.81
63493;BME280;49638;47.526;10.028;2024-02-26T07:01:46;89897.84;;;5.47;61.60
63493;BME280;49638;47.526;10.028;2024-02-26T07:04:46;89907.56;;;5.52;61.30
63493;BME280;49638;47.526;10.028;2024-02-26T07:07:47;89916.97;;;5.53;61.70
63493;BME280;49638;47.526;10.028;2024-02-26T07:10:47;89889.97;;;5.42;61.88
63493;BME280;49638;47.526;10.028;2024-02-26T07:13:48;89896.28;;;5.51;61.72
63493;BME280;49638;47.526;10.028;2024-02-26T07:16:49;89893.94;;;5.55;61.46
63493;BME280;49638;47.526;10.028;2024-02-26T07:19:50;89902.59;;;5.60;61.15
63493;BME280;49638;47.526;10.028;2024-02-26T07:22:50;89892.38;;;5.59;61.19
63493;BME280;49638;47.526;10.028;2024-02-26T07:25:50;89908.38;;;5.62;61.13
63493;BME280;49638;47.526;10.028;2024-02-26T07:28:52;89901.03;;;5.54;61.45
63493;BME280;49638;47.526;10.028;2024-02-26T07:31:53;89910.97;;;5.52;61.57
63493;BME280;49638;47.526;10.028;2024-02-26T07:34:53;89911.22;;;5.51;61.42
63493;BME280;49638;47.526;10.028;2024-02-26T07:37:53;89916.22;;;5.57;61.60
63493;BME280;49638;47.526;10.028;2024-02-26T07:40:54;89925.94;;;5.62;61.39
63493;BME280;49638;47.526;10.028;2024-02-26T07:43:54;89929.38;;;5.67;61.41
63493;BME280;49638;47.526;10.028;2024-02-26T07:46:54;89923.06;;;5.74;62.45
63493;BME280;49638;47.526;10.028;2024-02-26T07:49:54;89919.97;;;5.82;61.98
63493;BME280;49638;47.526;10.028;2024-02-26T07:52:55;89924.75;;;5.95;61.63
63493;BME280;49638;47.526;10.028;2024-02-26T07:55:55;89917.41;;;6.07;61.88
63493;BME280;49638;47.526;10.028;2024-02-26T07:58:56;89911.41;;;6.12;61.51
63493;BME280;49638;47.526;10.028;2024-02-26T08:01:56;89897.50;;;6.11;62.27
63493;BME280;49638;47.526;10.028;2024-02-26T08:04:56;89894.59;;;6.03;61.63
63493;BME280;49638;47.526;10.028;2024-02-26T08:07:56;89917.44;;;6.18;61.10
63493;BME280;49638;47.526;10.028;2024-02-26T08:10:57;89911.66;;;6.21;61.30
63493;BME280;49638;47.526;10.028;2024-02-26T08:13:57;89905.41;;;6.22;61.25
63493;BME280;49638;47.526;10.028;2024-02-26T08:16:59;89903.81;;;6.26;61.45
63493;BME280;49638;47.526;10.028;2024-02-26T08:20:00;89885.97;;;6.33;61.50
63493;BME280;49638;47.526;10.028;2024-02-26T08:23:00;89897.53;;;6.47;61.40
63493;BME280;49638;47.526;10.028;2024-02-26T08:26:00;89896.72;;;6.57;61.43
63493;BME280;49638;47.526;10.028;2024-02-26T08:29:01;89897.50;;;6.68;61.27
63493;BME280;49638;47.526;10.028;2024-02-26T08:32:01;89892.00;;;6.74;61.43
63493;BME280;49638;47.526;10.028;2024-02-26T08:35:02;89891.72;;;6.81;61.93
63493;BME280;49638;47.526;10.028;2024-02-26T08:38:02;89872.28;;;6.82;61.17
63493;BME280;49638;47.526;10.028;2024-02-26T08:41:04;89888.53;;;7.04;60.90
63493;BME280;49638;47.526;10.028;2024-02-26T08:44:07;89883.25;;;7.15;60.27
63493;BME280;49638;47.526;10.028;2024-02-26T08:47:07;89891.63;;;7.27;60.43
63493;BME280;49638;47.526;10.028;2024-02-26T08:50:08;89890.00;;;7.36;60.30
63493;BME280;49638;47.526;10.028;2024-02-26T08:53:09;89874.47;;;7.45;60.31
63493;BME280;49638;47.526;10.028;2024-02-26T08:56:10;89877.81;;;7.66;60.14
63493;BME280;49638;47.526;10.028;2024-02-26T08:59:16;89877.22;;;7.79;59.85
63493;BME280;49638;47.526;10.028;2024-02-26T09:02:22;89879.75;;;7.94;59.74
63493;BME280;49638;47.526;10.028;2024-02-26T09:05:22;89886.00;;;8.03;59.76
63493;BME280;49638;47.526;10.028;2024-02-26T09:08:23;89876.50;;;8.13;59.55
63493;BME280;49638;47.526;10.028;2024-02-26T09:11:23;89869.63;;;8.17;59.18
63493;BME280;49638;47.526;10.028;2024-02-26T09:14:23;89865.13;;;8.22;58.86
63493;BME280;49638;47.526;10.028;2024-02-26T09:17:26;89870.34;;;8.27;58.89
63493;BME280;49638;47.526;10.028;2024-02-26T09:20:26;89877.13;;;8.39;59.01
63493;BME280;49638;47.526;10.028;2024-02-26T09:23:26;89885.78;;;8.44;58.97
63493;BME280;49638;47.526;10.028;2024-02-26T09:26:27;89892.38;;;8.42;58.88
63493;BME280;49638;47.526;10.028;2024-02-26T09:29:27;89884.50;;;8.32;58.86
63493;BME280;49638;47.526;10.028;2024-02-26T09:32:27;89892.94;;;8.34;59.49
63493;BME280;49638;47.526;10.028;2024-02-26T09:35:28;89897.47;;;8.23;59.79
63493;BME280;49638;47.526;10.028;2024-02-26T09:38:29;89919.31;;;8.23;60.28
63493;BME280;49638;47.526;10.028;2024-02-26T09:41:30;89897.03;;;8.11;60.01
63493;BME280;49638;47.526;10.028;2024-02-26T09:44:31;89911.69;;;8.22;59.17
63493;BME280;49638;47.526;10.028;2024-02-26T09:47:36;89904.59;;;8.17;58.11
63493;BME280;49638;47.526;10.028;2024-02-26T09:50:36;89903.78;;;8.22;57.53
63493;BME280;49638;47.526;10.028;2024-02-26T09:53:38;89917.94;;;8.31;57.25
63493;BME280;49638;47.526;10.028;2024-02-26T09:56:43;89917.94;;;8.36;56.76
63493;BME280;49638;47.526;10.028;2024-02-26T09:59:46;89910.56;;;8.38;56.37
63493;BME280;49638;47.526;10.028;2024-02-26T10:02:48;89917.34;;;8.49;56.50
63493;BME280;49638;47.526;10.028;2024-02-26T10:05:50;89901.47;;;8.60;55.93
63493;BME280;49638;47.526;10.028;2024-02-26T10:08:51;89905.84;;;8.69;55.80
63493;BME280;49638;47.526;10.028;2024-02-26T10:11:51;89902.13;;;8.75;55.69
63493;BME280;49638;47.526;10.028;2024-02-26T10:14:51;89916.50;;;8.88;55.06
63493;BME280;49638;47.526;10.028;2024-02-26T10:17:52;89934.81;;;9.04;54.69
63493;BME280;49638;47.526;10.028;2024-02-26T10:21:02;89934.78;;;9.09;50.90
63493;BME280;49638;47.526;10.028;2024-02-26T10:24:02;89932.59;;;9.16;54.00
63493;BME280;49638;47.526;10.028;2024-02-26T10:27:03;89928.56;;;9.23;53.90
63493;BME280;49638;47.526;10.028;2024-02-26T10:30:04;89920.88;;;9.27;54.00
63493;BME280;49638;47.526;10.028;2024-02-26T10:33:14;89935.78;;;9.42;53.51
63493;BME280;49638;47.526;10.028;2024-02-26T10:36:14;89945.47;;;9.46;53.01
63493;BME280;49638;47.526;10.028;2024-02-26T10:39:15;89936.50;;;9.47;52.65
63493;BME280;49638;47.526;10.028;2024-02-26T10:42:15;89943.06;;;9.50;52.79
63493;BME280;49638;47.526;10.028;2024-02-26T10:45:18;89949.56;;;9.58;52.98
63493;BME280;49638;47.526;10.028;2024-02-26T10:48:19;89939.84;;;9.58;52.81
63493;BME280;49638;47.526;10.028;2024-02-26T10:51:27;89959.75;;;9.69;50.76
63493;BME280;49638;47.526;10.028;2024-02-26T10:54:29;89951.06;;;9.69;53.27
63493;BME280;49638;47.526;10.028;2024-02-26T10:57:34;89962.53;;;9.78;52.53
63493;BME280;49638;47.526;10.028;2024-02-26T11:00:35;89967.25;;;9.81;52.91
63493;BME280;49638;47.526;10.028;2024-02-26T11:03:36;89970.97;;;9.80;52.79
63493;BME280;49638;47.526;10.028;2024-02-26T11:06:39;89974.13;;;9.82;52.73
63493;BME280;49638;47.526;10.028;2024-02-26T11:09:40;89963.63;;;9.77;52.58
63493;BME280;49638;47.526;10.028;2024-02-26T11:12:45;89963.06;;;9.80;52.76
63493;BME280;49638;47.526;10.028;2024-02-26T11:15:46;89959.69;;;9.75;52.79
63493;BME280;49638;47.526;10.028;2024-02-26T11:18:51;89958.13;;;9.74;52.84
63493;BME280;49638;47.526;10.028;2024-02-26T11:21:52;89967.88;;;9.73;53.04
63493;BME280;49638;47.526;10.028;2024-02-26T11:24:53;89990.63;;;9.69;53.53
63493;BME280;49638;47.526;10.028;2024-02-26T11:27:57;89984.34;;;9.65;53.20
63493;BME280;49638;47.526;10.028;2024-02-26T11:31:00;89982.53;;;9.60;53.49
63493;BME280;49638;47.526;10.028;2024-02-26T11:34:01;89984.44;;;9.55;53.76
63493;BME280;49638;47.526;10.028;2024-02-26T11:37:13;89986.88;;;9.46;52.31
63493;BME280;49638;47.526;10.028;2024-02-26T11:40:14;89989.84;;;9.39;54.11
63493;BME280;49638;47.526;10.028;2024-02-26T11:43:14;89992.88;;;9.28;54.10
63493;BME280;49638;47.526;10.028;2024-02-26T11:46:31;90001.13;;;9.16;52.43
63493;BME280;49638;47.526;10.028;2024-02-26T11:49:32;90005.13;;;9.08;54.81
63493;BME280;49638;47.526;10.028;2024-02-26T11:52:32;90003.91;;;8.95;54.40
63493;BME280;49638;47.526;10.028;2024-02-26T11:55:33;89999.50;;;8.86;54.44
63493;BME280;49638;47.526;10.028;2024-02-26T11:58:33;90015.06;;;8.82;54.65
63493;BME280;49638;47.526;10.028;2024-02-26T12:01:45;90015.91;;;8.72;54.12
63493;BME280;49638;47.526;10.028;2024-02-26T12:04:48;90021.47;;;8.71;55.07
63493;BME280;49638;47.526;10.028;2024-02-26T12:07:54;90015.25;;;8.57;54.50
63493;BME280;49638;47.526;10.028;2024-02-26T12:10:54;90024.69;;;8.63;55.33
63493;BME280;49638;47.526;10.028;2024-02-26T12:13:56;90030.00;;;8.52;55.27
63493;BME280;49638;47.526;10.028;2024-02-26T12:16:57;90027.91;;;8.49;55.26
63493;BME280;49638;47.526;10.028;2024-02-26T12:20:08;90039.72;;;8.57;53.56
63493;BME280;49638;47.526;10.028;2024-02-26T12:23:15;90047.88;;;8.56;54.97
63493;BME280;49638;47.526;10.028;2024-02-26T12:26:16;90030.50;;;8.55;55.50
63493;BME280;49638;47.526;10.028;2024-02-26T12:29:16;90035.28;;;8.52;55.40
63493;BME280;49638;47.526;10.028;2024-02-26T12:32:17;90033.38;;;8.63;55.46
63493;BME280;49638;47.526;10.028;2024-02-26T12:35:17;90021.00;;;8.64;55.77
63493;BME280;49638;47.526;10.028;2024-02-26T12:38:17;90025.44;;;8.68;56.33
63493;BME280;49638;47.526;10.028;2024-02-26T12:41:18;90034.41;;;8.67;56.56
63493;BME280;49638;47.526;10.028;2024-02-26T12:44:24;90028.09;;;8.63;57.37
63493;BME280;49638;47.526;10.028;2024-02-26T12:47:25;90035.22;;;8.58;57.02
63493;BME280;49638;47.526;10.028;2024-02-26T12:50:25;90037.88;;;8.58;57.01
63493;BME280;49638;47.526;10.028;2024-02-26T12:53:26;90039.72;;;8.52;56.72
63493;BME280;49638;47.526;10.028;2024-02-26T12:56:27;90042.59;;;8.56;56.99
63493;BME280;49638;47.526;10.028;2024-02-26T12:59:29;90041.56;;;8.51;56.72
63493;BME280;49638;47.526;10.028;2024-02-26T13:02:31;90050.78;;;8.54;56.93
63493;BME280;49638;47.526;10.028;2024-02-26T13:05:33;90028.47;;;8.41;57.18
63493;BME280;49638;47.526;10.028;2024-02-26T13:08:33;90038.44;;;8.49;57.00
63493;BME280;49638;47.526;10.028;2024-02-26T13:11:34;90047.91;;;8.50;57.30
63493;BME280;49638;47.526;10.028;2024-02-26T13:14:34;90036.91;;;8.38;57.43
63493;BME280;49638;47.526;10.028;2024-02-26T13:17:35;90028.47;;;8.36;57.02
63493;BME280;49638;47.526;10.028;2024-02-26T13:20:35;90060.28;;;8.50;56.74
63493;BME280;49638;47.526;10.028;2024-02-26T13:23:37;90056.59;;;8.51;56.31
63493;BME280;49638;47.526;10.028;2024-02-26T13:26:38;90032.66;;;8.47;56.44
63493;BME280;49638;47.526;10.028;2024-02-26T13:29:39;90042.06;;;8.59;56.62
63493;BME280;49638;47.526;10.028;2024-02-26T13:32:40;90042.06;;;8.64;56.83
63493;BME280;49638;47.526;10.028;2024-02-26T13:35:41;90035.72;;;8.65;56.89
63493;BME280;49638;47.526;10.028;2024-02-26T13:38:51;90004.72;;;8.51;56.42
63493;BME280;49638;47.526;10.028;2024-02-26T13:41:52;90043.53;;;8.80;57.38
63493;BME280;49638;47.526;10.028;2024-02-26T13:44:53;90020.41;;;8.72;57.46
63493;BME280;49638;47.526;10.028;2024-02-26T13:47:53;90015.13;;;8.72;57.53
63493;BME280;49638;47.526;10.028;2024-02-26T13:50:53;90019.84;;;8.75;57.63
63493;BME280;49638;47.526;10.028;2024-02-26T13:53:53;90023.00;;;8.77;57.64
63493;BME280;49638;47.526;10.028;2024-02-26T13:56:54;90027.75;;;8.80;57.28
63493;BME280;49638;47.526;10.028;2024-02-26T13:59:54;90033.00;;;8.80;57.39
63493;BME280;49638;47.526;10.028;2024-02-26T14:02:55;90023.06;;;8.67;57.05
63493;BME280;49638;47.526;10.028;2024-02-26T14:05:55;90024.06;;;8.76;57.00
63493;BME280;49638;47.526;10.028;2024-02-26T14:08:57;90025.34;;;8.79;57.00
63493;BME280;49638;47.526;10.028;2024-02-26T14:11:58;90019.84;;;8.75;57.00
63493;BME280;49638;47.526;10.028;2024-02-26T14:14:59;90035.59;;;8.85;56.88
63493;BME280;49638;47.526;10.028;2024-02-26T14:18:01;90036.91;;;8.88;56.95
63493;BME280;49638;47.526;10.028;2024-02-26T14:21:03;90028.22;;;8.87;56.97
63493;BME280;49638;47.526;10.028;2024-02-26T14:24:04;90021.63;;;8.85;56.96
63493;BME280;49638;47.526;10.028;2024-02-26T14:27:04;90023.50;;;8.84;56.84
63493;BME280;49638;47.526;10.028;2024-02-26T14:30:05;90025.09;;;8.80;56.99
63493;BME280;49638;47.526;10.028;2024-02-26T14:33:06;89999.09;;;8.68;57.14
63493;BME280;49638;47.526;10.028;2024-02-26T14:36:07;90025.13;;;8.75;57.20
63493;BME280;49638;47.526;10.028;2024-02-26T14:39:07;90021.19;;;8.72;57.28
63493;BME280;49638;47.526;10.028;2024-02-26T14:42:11;90019.91;;;8.70;57.31
63493;BME280;49638;47.526;10.028;2024-02-26T14:45:11;90020.44;;;8.67;57.36
63493;BME280;49638;47.526;10.028;2024-02-26T14:48:11;90022.53;;;8.70;57.51
63493;BME280;49638;47.526;10.028;2024-02-26T14:51:12;90023.31;;;8.70;57.64
63493;BME280;49638;47.526;10.028;2024-02-26T14:54:12;89999.38;;;8.62;57.81
63493;BME280;49638;47.526;10.028;2024-02-26T14:57:13;90017.50;;;8.73;57.53
63493;BME280;49638;47.526;10.028;2024-02-26T15:00:13;90000.41;;;8.66;57.78
63493;BME280;49638;47.526;10.028;2024-02-26T15:03:14;90021.66;;;8.80;57.59
63493;BME280;49638;47.526;10.028;2024-02-26T15:06:14;90018.75;;;8.81;57.70
63493;BME280;49638;47.526;10.028;2024-02-26T15:09:14;90018.47;;;8.83;57.71
63493;BME280;49638;47.526;10.028;2024-02-26T15:12:14;90008.47;;;8.85;57.69
63493;BME280;49638;47.526;10.028;2024-02-26T15:15:17;90019.25;;;8.88;57.84
63493;BME280;49638;47.526;10.028;2024-02-26T15:18:17;90010.56;;;8.83;57.65
63493;BME280;49638;47.526;10.028;2024-02-26T15:21:18;89993.50;;;8.75;57.57
63493;BME280;49638;47.526;10.028;2024-02-26T15:24:18;90016.84;;;8.92;57.53
63493;BME280;49638;47.526;10.028;2024-02-26T15:27:18;90026.06;;;8.94;57.62
63493;BME280;49638;47.526;10.028;2024-02-26T15:30:19;90009.00;;;8.87;57.32
63493;BME280;49638;47.526;10.028;2024-02-26T15:33:19;90024.72;;;8.97;57.58
63493;BME280;49638;47.526;10.028;2024-02-26T15:36:19;90031.56;;;8.98;57.46
63493;BME280;49638;47.526;10.028;2024-02-26T15:39:20;90017.13;;;8.90;57.56
63493;BME280;49638;47.526;10.028;2024-02-26T15:42:21;90013.75;;;8.85;57.80
63493;BME280;49638;47.526;10.028;2024-02-26T15:45:21;90021.28;;;8.96;57.63
63493;BME280;49638;47.526;10.028;2024-02-26T15:48:24;90003.75;;;8.82;57.48
63493;BME280;49638;47.526;10.028;2024-02-26T15:51:24;90029.75;;;8.93;57.66
63493;BME280;49638;47.526;10.028;2024-02-26T15:54:25;90033.44;;;8.92;57.64
63493;BME280;49638;47.526;10.028;2024-02-26T15:57:25;90040.31;;;8.88;57.83